Time;durP1;ratioP1;P1;durP2;ratioP2;P2;SDS_P1;SDS_P2;PMS_P1;PMS_P2;Temp;Humidity;BMP_temperature;BMP_pressure;BME280_temperature;BME280_humidity;BME280_pressure;Samples;Min_cycle;Max_cycle;Signal;HPM_P1;HPM_P2
2021/01/08 00:01:40;;;;;;;10.55;8.60;;;4.40;86.20;;;;;;4885301;29;20119;-87
2021/01/08 00:04:06;;;;;;;12.13;9.82;;;4.30;86.10;;;;;;4901456;29;20411;-86
2021/01/08 00:06:32;;;;;;;12.30;9.65;;;4.40;86.10;;;;;;4879930;29;20032;-87
2021/01/08 00:08:58;;;;;;;11.10;8.70;;;4.40;86.10;;;;;;4899458;29;20028;-86
2021/01/08 00:11:24;;;;;;;9.73;8.10;;;4.30;86.00;;;;;;4899509;29;20025;-86
2021/01/08 00:13:50;;;;;;;9.98;7.75;;;4.30;86.10;;;;;;4866792;29;20059;-86
2021/01/08 00:16:16;;;;;;;9.45;7.82;;;4.30;86.10;;;;;;4889848;29;20032;-86
2021/01/08 00:18:43;;;;;;;9.88;7.85;;;4.30;86.10;;;;;;4901103;29;20028;-87
2021/01/08 00:21:09;;;;;;;9.13;7.22;;;4.30;86.00;;;;;;4916598;29;20399;-86
2021/01/08 00:23:35;;;;;;;9.05;6.93;;;4.30;86.70;;;;;;4869651;29;20032;-87
2021/01/08 00:26:00;;;;;;;7.18;6.15;;;4.30;86.10;;;;;;4885831;29;20032;-86
2021/01/08 00:28:26;;;;;;;6.50;5.20;;;4.30;86.10;;;;;;4870199;29;20095;-86
2021/01/08 00:30:52;;;;;;;7.78;6.43;;;4.40;86.10;;;;;;4869690;29;20032;-87
2021/01/08 00:33:18;;;;;;;7.07;5.25;;;4.30;86.00;;;;;;4875973;29;20063;-86
2021/01/08 00:35:43;;;;;;;5.75;4.95;;;4.30;86.00;;;;;;4851263;29;20486;-86
2021/01/08 00:38:09;;;;;;;5.75;4.78;;;4.40;86.00;;;;;;4882258;29;20341;-86
2021/01/08 00:40:35;;;;;;;5.75;4.57;;;4.40;85.90;;;;;;4882136;29;20033;-86
2021/01/08 00:43:00;;;;;;;6.57;5.03;;;4.40;85.90;;;;;;4851255;29;20040;-86
2021/01/08 00:45:26;;;;;;;5.78;5.03;;;4.40;85.90;;;;;;4882498;29;20390;-87
2021/01/08 00:47:51;;;;;;;5.95;4.80;;;4.40;85.90;;;;;;4881523;29;20036;-86
2021/01/08 00:50:18;;;;;;;7.55;5.57;;;4.40;85.90;;;;;;4866468;29;20104;-86
2021/01/08 00:52:43;;;;;;;7.28;5.45;;;4.40;85.90;;;;;;4881532;29;20127;-86
2021/01/08 00:55:10;;;;;;;6.53;5.05;;;4.40;85.90;;;;;;4876902;23;20193;-84
2021/01/08 00:57:35;;;;;;;5.93;4.45;;;4.40;85.90;;;;;;4899268;29;20194;-84
2021/01/08 01:00:01;;;;;;;7.90;6.53;;;4.40;85.80;;;;;;4899396;29;20493;-84
2021/01/08 01:02:27;;;;;;;7.35;5.78;;;4.50;85.80;;;;;;4899357;29;20036;-84
2021/01/08 01:04:53;;;;;;;8.48;6.45;;;4.50;85.80;;;;;;4883283;29;20058;-84
2021/01/08 01:07:19;;;;;;;8.70;7.13;;;4.50;85.90;;;;;;4880455;29;20133;-85
2021/01/08 01:09:44;;;;;;;7.47;5.55;;;4.50;85.90;;;;;;4895915;29;20040;-85
2021/01/08 01:12:10;;;;;;;6.97;5.30;;;4.40;86.00;;;;;;4880623;29;20029;-84
2021/01/08 01:14:35;;;;;;;6.82;5.07;;;4.40;85.90;;;;;;4901341;29;20032;-84
2021/01/08 01:17:04;;;;;;;7.82;5.68;;;4.40;85.90;;;;;;4899443;29;20432;-83
2021/01/08 01:19:30;;;;;;;7.88;6.10;;;4.40;85.90;;;;;;4899194;29;20518;-83
2021/01/08 01:21:56;;;;;;;7.90;5.30;;;4.40;85.90;;;;;;4898483;29;20054;-83
2021/01/08 01:24:22;;;;;;;9.02;6.20;;;4.40;85.90;;;;;;4898810;29;20043;-83
2021/01/08 01:26:54;;;;;;;8.23;5.65;;;4.40;85.90;;;;;;4879752;29;20024;-83
2021/01/08 01:29:20;;;;;;;7.85;6.00;;;4.40;86.00;;;;;;4896966;29;20024;-83
2021/01/08 01:31:46;;;;;;;6.88;5.40;;;4.40;86.00;;;;;;4879647;29;20028;-83
2021/01/08 01:34:12;;;;;;;7.68;6.22;;;4.40;86.00;;;;;;4879481;29;20054;-83
2021/01/08 01:36:37;;;;;;;7.88;6.35;;;4.40;86.00;;;;;;4879819;29;20039;-83
2021/01/08 01:39:03;;;;;;;8.65;7.20;;;4.40;86.00;;;;;;4864516;29;20084;-83
2021/01/08 01:41:28;;;;;;;10.38;7.00;;;4.40;85.90;;;;;;4879877;29;20677;-83
2021/01/08 01:43:54;;;;;;;9.18;7.35;;;4.40;85.90;;;;;;4879648;29;20120;-83
2021/01/08 01:46:21;;;;;;;9.15;7.18;;;4.40;85.90;;;;;;4896818;29;20029;-84
2021/01/08 01:48:51;;;;;;;8.27;7.03;;;4.40;85.90;;;;;;4898119;29;20036;-83
2021/01/08 01:51:19;;;;;;;9.40;7.88;;;4.40;85.90;;;;;;4898377;29;20119;-83
2021/01/08 01:53:45;;;;;;;9.73;7.80;;;4.40;85.80;;;;;;4898008;29;20145;-84
2021/01/08 01:56:11;;;;;;;9.27;7.68;;;4.40;85.80;;;;;;4898361;29;20394;-83
2021/01/08 01:58:37;;;;;;;8.63;6.95;;;4.50;85.80;;;;;;4864721;29;20055;-83
2021/01/08 02:01:02;;;;;;;8.60;6.90;;;4.50;85.80;;;;;;4864192;29;20040;-83
2021/01/08 02:03:34;;;;;;;9.65;8.07;;;4.50;85.70;;;;;;4896330;29;20045;-83
2021/01/08 02:06:15;;;;;;;8.50;7.38;;;4.50;85.70;;;;;;4879207;29;20390;-83
2021/01/08 02:08:45;;;;;;;7.90;7.10;;;4.50;85.70;;;;;;4880198;29;20032;-83
2021/01/08 02:11:14;;;;;;;8.65;7.05;;;4.50;85.70;;;;;;4879499;29;20061;-83
2021/01/08 02:13:41;;;;;;;;;;;4.50;85.70;;;;;;4879421;29;20598;-83
2021/01/08 02:16:10;;;;;;;7.53;6.43;;;4.50;85.60;;;;;;4896265;29;19966;-83
2021/01/08 02:18:38;;;;;;;8.80;7.10;;;4.40;85.60;;;;;;4879519;29;20067;-83
2021/01/08 02:21:08;;;;;;;8.70;7.38;;;4.50;85.70;;;;;;4896236;29;20032;-84
2021/01/08 02:23:40;;;;;;;8.27;7.30;;;4.40;85.70;;;;;;4896051;29;20032;-83
2021/01/08 02:26:07;;;;;;;7.15;6.30;;;4.50;86.30;;;;;;4885635;29;20075;-83
2021/01/08 02:28:33;;;;;;;7.82;6.97;;;4.40;85.60;;;;;;4882284;29;20036;-83
2021/01/08 02:30:59;;;;;;;7.32;6.50;;;4.40;85.60;;;;;;4897520;29;20024;-83
2021/01/08 02:33:24;;;;;;;7.45;6.25;;;4.40;85.60;;;;;;4881973;29;20043;-83
2021/01/08 02:35:51;;;;;;;9.57;8.32;;;4.50;85.60;;;;;;4914333;29;20028;-83
2021/01/08 02:38:20;;;;;;;8.20;7.30;;;4.50;85.60;;;;;;4896222;29;20123;-83
2021/01/08 02:40:47;;;;;;;7.90;6.82;;;4.50;85.60;;;;;;4897414;29;20501;-83
2021/01/08 02:43:18;;;;;;;8.60;6.70;;;4.50;85.60;;;;;;4881957;29;20049;-83
2021/01/08 02:45:44;;;;;;;8.73;7.03;;;4.50;85.60;;;;;;4914100;29;20060;-83
2021/01/08 02:48:10;;;;;;;8.57;7.38;;;4.40;86.10;;;;;;4914912;29;20052;-83
2021/01/08 02:50:36;;;;;;;7.82;6.45;;;4.40;85.60;;;;;;4882301;29;20116;-83
2021/01/08 02:53:07;;;;;;;8.73;7.00;;;4.40;85.70;;;;;;4897209;29;20480;-83
2021/01/08 02:55:35;;;;;;;8.50;6.72;;;4.40;85.70;;;;;;4912709;29;20064;-83
2021/01/08 02:58:03;;;;;;;8.02;6.47;;;4.40;85.80;;;;;;4863197;29;20036;-83
2021/01/08 03:00:33;;;;;;;7.82;5.80;;;4.30;85.80;;;;;;4863275;29;20029;-83
2021/01/08 03:03:01;;;;;;;7.05;5.20;;;4.30;85.80;;;;;;4878615;29;20140;-83
2021/01/08 03:05:28;;;;;;;6.15;5.07;;;4.40;85.70;;;;;;4863353;29;20037;-83
2021/01/08 03:07:55;;;;;;;6.50;4.97;;;4.40;85.70;;;;;;4878604;29;20029;-83
2021/01/08 03:10:24;;;;;;;6.28;4.88;;;4.40;85.70;;;;;;4863369;29;20057;-83
2021/01/08 03:12:57;;;;;;;6.88;5.60;;;4.40;85.60;;;;;;4878602;29;20033;-83
2021/01/08 03:15:23;;;;;;;7.47;5.60;;;4.40;85.60;;;;;;4880651;29;20044;-83
2021/01/08 03:17:49;;;;;;;5.75;4.57;;;4.40;86.10;;;;;;4914016;29;20080;-83
2021/01/08 03:20:14;;;;;;;6.25;5.07;;;4.40;85.40;;;;;;4914301;29;20040;-83
2021/01/08 03:22:40;;;;;;;8.63;5.70;;;4.50;85.40;;;;;;4896926;29;20463;-83
2021/01/08 03:25:06;;;;;;;8.48;6.10;;;4.50;85.40;;;;;;4881790;29;20525;-83
2021/01/08 03:27:32;;;;;;;7.43;6.00;;;4.40;86.00;;;;;;4880293;29;20062;-83
2021/01/08 03:29:58;;;;;;;8.10;5.93;;;4.40;85.40;;;;;;4862744;29;20036;-84
2021/01/08 03:32:23;;;;;;;7.80;6.38;;;4.40;85.40;;;;;;4894199;29;20116;-83
2021/01/08 03:34:49;;;;;;;6.80;5.45;;;4.40;85.40;;;;;;4862680;29;20043;-83
2021/01/08 03:37:15;;;;;;;6.10;5.13;;;4.40;85.30;;;;;;4878681;29;20068;-83
2021/01/08 03:39:41;;;;;;;7.10;5.45;;;4.40;85.30;;;;;;4894978;29;20459;-83
2021/01/08 03:42:07;;;;;;;6.65;5.40;;;4.50;85.30;;;;;;4878523;29;20120;-84
2021/01/08 03:44:32;;;;;;;5.85;4.70;;;4.50;85.20;;;;;;4893396;29;20047;-84
2021/01/08 03:46:58;;;;;;;6.65;5.18;;;4.50;85.20;;;;;;4878242;29;20040;-84
2021/01/08 03:49:26;;;;;;;6.85;5.47;;;4.50;85.10;;;;;;4896534;29;20036;-84
2021/01/08 03:51:51;;;;;;;7.63;6.18;;;4.50;85.60;;;;;;4881199;29;20500;-83
2021/01/08 03:54:17;;;;;;;7.95;6.25;;;4.50;84.90;;;;;;4881280;29;20147;-83
2021/01/08 03:56:42;;;;;;;6.60;5.75;;;4.50;84.90;;;;;;4887914;29;20039;-84
2021/01/08 03:59:08;;;;;;;8.15;6.38;;;4.50;84.90;;;;;;4881745;29;20211;-83
2021/01/08 04:01:33;;;;;;;8.25;7.00;;;4.60;84.90;;;;;;4881655;29;20029;-84
2021/01/08 04:03:59;;;;;;;9.00;7.40;;;4.50;84.80;;;;;;4865749;29;20032;-84
2021/01/08 04:06:25;;;;;;;8.60;6.93;;;4.50;84.80;;;;;;4898765;29;20108;-83
2021/01/08 04:08:51;;;;;;;8.60;6.57;;;4.50;84.80;;;;;;4888940;29;20402;-83
2021/01/08 04:11:16;;;;;;;7.60;6.07;;;4.60;84.80;;;;;;4900292;29;20036;-84
2021/01/08 04:13:42;;;;;;;8.43;6.47;;;4.60;84.80;;;;;;4884518;29;20214;-83
2021/01/08 04:16:07;;;;;;;8.38;6.55;;;4.60;84.80;;;;;;4900291;29;20036;-83
2021/01/08 04:18:33;;;;;;;9.23;6.22;;;4.50;84.70;;;;;;4900257;29;20032;-83
2021/01/08 04:20:59;;;;;;;7.57;6.15;;;4.50;84.70;;;;;;4915746;29;20424;-83
2021/01/08 04:23:24;;;;;;;7.82;6.38;;;4.50;84.70;;;;;;4884288;29;20076;-83
2021/01/08 04:25:50;;;;;;;7.30;5.88;;;4.50;84.70;;;;;;4913894;29;20387;-84
2021/01/08 04:28:15;;;;;;;6.20;5.15;;;4.50;84.60;;;;;;4917014;29;20033;-83
2021/01/08 04:30:41;;;;;;;8.45;5.85;;;4.60;84.70;;;;;;4900052;29;20507;-83
2021/01/08 04:33:06;;;;;;;7.28;5.85;;;4.60;84.70;;;;;;4899730;29;20392;-84
2021/01/08 04:35:32;;;;;;;7.78;6.53;;;4.60;84.70;;;;;;4916848;29;20047;-84
2021/01/08 04:37:58;;;;;;;7.65;6.00;;;4.60;84.60;;;;;;4916411;29;20043;-83
2021/01/08 04:40:23;;;;;;;7.93;6.03;;;4.60;84.60;;;;;;4899820;29;20574;-83
2021/01/08 04:42:49;;;;;;;8.45;6.18;;;4.50;84.70;;;;;;4899366;29;20582;-84
2021/01/08 04:45:15;;;;;;;7.95;6.50;;;4.60;84.70;;;;;;4904079;29;20040;-83
2021/01/08 04:47:42;;;;;;;8.77;6.68;;;4.50;84.70;;;;;;4912134;29;20036;-83
2021/01/08 04:50:08;;;;;;;8.73;6.90;;;4.50;84.70;;;;;;4887932;29;20036;-83
2021/01/08 04:52:35;;;;;;;7.60;6.18;;;4.50;84.80;;;;;;4881777;29;20032;-84
2021/01/08 04:55:04;;;;;;;6.80;5.65;;;4.50;84.80;;;;;;4898033;29;20415;-84
2021/01/08 04:57:32;;;;;;;7.95;6.45;;;4.50;84.80;;;;;;4882549;29;20502;-84
2021/01/08 04:59:58;;;;;;;7.50;5.97;;;4.50;84.70;;;;;;4894036;29;20502;-84
2021/01/08 05:02:24;;;;;;;9.07;6.60;;;4.50;85.30;;;;;;4898256;29;20033;-82
2021/01/08 05:04:50;;;;;;;7.32;5.88;;;4.50;84.70;;;;;;4865498;29;20039;-82
2021/01/08 05:07:16;;;;;;;8.93;7.00;;;4.50;84.70;;;;;;4897144;29;20061;-82
2021/01/08 05:09:41;;;;;;;7.18;5.75;;;4.50;84.70;;;;;;4866050;29;20024;-82
2021/01/08 05:12:07;;;;;;;6.85;5.35;;;4.40;84.70;;;;;;4895895;29;20466;-81
2021/01/08 05:14:33;;;;;;;6.78;5.30;;;4.50;84.70;;;;;;4899750;29;20036;-82
2021/01/08 05:16:59;;;;;;;5.93;4.93;;;4.50;84.60;;;;;;4899390;29;20036;-82
2021/01/08 05:19:25;;;;;;;7.38;5.45;;;4.50;84.60;;;;;;4916912;29;20046;-86
2021/01/08 05:21:52;;;;;;;5.80;4.75;;;4.50;84.40;;;;;;4898989;29;20439;-86
2021/01/08 05:24:21;;;;;;;7.57;5.68;;;4.50;84.40;;;;;;4899885;29;20051;-86
2021/01/08 05:26:46;;;;;;;7.10;5.83;;;4.50;84.40;;;;;;4899020;29;20551;-86
2021/01/08 05:29:12;;;;;;;7.20;5.90;;;4.50;85.00;;;;;;4881359;29;20029;-86
2021/01/08 05:31:39;;;;;;;8.13;5.72;;;4.50;84.40;;;;;;4882304;29;20042;-86
2021/01/08 05:34:05;;;;;;;7.78;6.28;;;4.50;84.50;;;;;;4894816;29;20128;-86
2021/01/08 05:36:30;;;;;;;8.20;6.40;;;4.50;84.50;;;;;;4899386;29;20106;-85
2021/01/08 05:38:58;;;;;;;8.35;6.40;;;4.50;84.50;;;;;;4883156;29;20040;-86
2021/01/08 05:41:25;;;;;;;7.75;6.40;;;4.50;84.60;;;;;;4884098;29;20055;-86
2021/01/08 05:43:51;;;;;;;7.78;5.95;;;4.50;84.70;;;;;;4899010;29;20040;-86
2021/01/08 05:46:24;;;;;;;6.28;5.05;;;4.50;84.70;;;;;;4883921;29;20488;-86
2021/01/08 05:48:57;;;;;;;6.53;5.22;;;4.50;84.60;;;;;;4884834;29;20029;-85
2021/01/08 05:51:25;;;;;;;6.43;5.47;;;4.40;84.60;;;;;;4881043;29;20248;-85
2021/01/08 05:53:52;;;;;;;6.72;5.28;;;4.40;84.60;;;;;;4896884;29;20076;-85
2021/01/08 05:56:20;;;;;;;6.78;5.43;;;4.40;84.60;;;;;;4880889;29;20032;-86
2021/01/08 05:58:47;;;;;;;6.38;4.65;;;4.40;84.60;;;;;;4897305;29;20025;-86
2021/01/08 06:01:13;;;;;;;6.65;5.13;;;4.40;84.50;;;;;;4897404;29;20502;-86
2021/01/08 06:03:41;;;;;;;7.10;5.50;;;4.40;84.50;;;;;;4868050;29;20028;-86
2021/01/08 06:06:07;;;;;;;7.50;5.80;;;4.40;84.40;;;;;;4864904;29;20029;-86
2021/01/08 06:08:53;;;;;;;6.78;5.35;;;4.40;84.40;;;;;;4898453;29;20041;-86
2021/01/08 06:11:22;;;;;;;6.72;5.00;;;4.40;84.40;;;;;;4897334;29;20079;-86
2021/01/08 06:13:50;;;;;;;;;;;4.40;84.30;;;;;;4865207;29;20088;-86
2021/01/08 06:16:18;;;;;;;6.55;4.50;;;4.40;84.20;;;;;;4882903;29;19971;-86
2021/01/08 06:18:55;;;;;;;6.63;4.90;;;4.40;84.20;;;;;;4908508;29;20040;-85
2021/01/08 06:21:34;;;;;;;6.97;5.00;;;4.40;84.20;;;;;;4899028;29;20024;-86
2021/01/08 06:24:00;;;;;;;6.55;4.90;;;4.40;84.20;;;;;;4880942;29;20191;-86
2021/01/08 06:26:28;;;;;;;6.63;4.72;;;4.30;84.10;;;;;;4880385;29;20123;-86
2021/01/08 06:29:00;;;;;;;5.88;4.55;;;4.40;84.10;;;;;;4880312;29;20467;-85
2021/01/08 06:31:35;;;;;;;6.18;4.82;;;4.40;84.10;;;;;;4895860;29;20036;-86
2021/01/08 06:34:02;;;;;;;5.85;4.25;;;4.40;84.10;;;;;;4896854;29;20371;-86
2021/01/08 06:36:30;;;;;;;6.43;4.22;;;4.40;84.10;;;;;;4880574;29;20115;-86
2021/01/08 06:38:56;;;;;;;5.53;4.40;;;4.40;84.10;;;;;;4896620;29;20035;-86
2021/01/08 06:41:23;;;;;;;5.72;4.32;;;4.40;84.00;;;;;;4896840;29;20076;-86
2021/01/08 06:43:57;;;;;;;5.95;4.13;;;4.50;84.00;;;;;;4880274;29;20073;-88
2021/01/08 06:46:28;;;;;;;5.13;3.90;;;4.50;83.90;;;;;;4898632;29;20033;-88
2021/01/08 06:48:56;;;;;;;6.03;4.55;;;4.50;83.90;;;;;;4898362;29;20032;-88
2021/01/08 06:51:30;;;;;;;6.82;4.80;;;4.40;83.70;;;;;;4881671;29;20020;-88
2021/01/08 06:54:06;;;;;;;6.60;5.00;;;4.40;83.70;;;;;;4897711;29;20063;-87
2021/01/08 06:56:41;;;;;;;6.45;4.90;;;4.40;83.80;;;;;;4899852;29;20042;-88
2021/01/08 06:59:17;;;;;;;6.80;4.60;;;4.40;83.70;;;;;;4899241;29;20028;-88
2021/01/08 07:01:52;;;;;;;6.45;5.00;;;4.40;83.70;;;;;;4915412;29;20040;-88
2021/01/08 07:04:26;;;;;;;6.60;4.88;;;4.40;83.70;;;;;;4887513;29;20032;-88
2021/01/08 07:06:58;;;;;;;6.25;4.50;;;4.40;83.70;;;;;;4889130;29;20039;-88
2021/01/08 07:09:35;;;;;;;7.00;5.45;;;4.40;83.70;;;;;;4911758;23;20091;-87
2021/01/08 07:12:01;;;;;;;6.82;4.85;;;4.40;83.70;;;;;;4879496;29;20466;-86
2021/01/08 07:14:27;;;;;;;7.47;5.22;;;4.40;83.70;;;;;;4879810;29;20455;-86
2021/01/08 07:16:55;;;;;;;7.35;5.10;;;4.40;83.70;;;;;;4884665;29;20474;-86
2021/01/08 07:19:23;;;;;;;6.40;4.57;;;4.40;83.70;;;;;;4878121;29;20383;-88
2021/01/08 07:21:50;;;;;;;6.63;4.57;;;4.40;83.70;;;;;;4877019;29;20081;-88
2021/01/08 07:24:29;;;;;;;5.60;4.07;;;4.50;83.70;;;;;;4846353;29;20029;-88
2021/01/08 07:27:12;;;;;;;6.53;4.68;;;4.50;83.70;;;;;;4879154;29;20040;-89
2021/01/08 07:29:38;;;;;;;6.55;4.78;;;4.50;83.60;;;;;;4848416;29;20037;-88
2021/01/08 07:32:05;;;;;;;6.28;4.30;;;4.50;83.60;;;;;;4849117;29;20040;-88
2021/01/08 07:34:35;;;;;;;6.53;4.43;;;4.50;83.60;;;;;;4873752;29;20059;-88
2021/01/08 07:37:02;;;;;;;7.35;5.00;;;4.50;83.60;;;;;;4866739;29;20037;-87
2021/01/08 07:39:41;;;;;;;7.40;5.45;;;4.50;83.60;;;;;;4889932;29;20033;-88
2021/01/08 07:42:32;;;;;;;7.15;4.90;;;4.50;83.60;;;;;;4899760;29;20104;-88
2021/01/08 07:44:58;;;;;;;6.65;4.47;;;4.50;83.50;;;;;;4892442;29;20103;-88
2021/01/08 07:47:37;;;;;;;6.65;4.57;;;4.50;83.50;;;;;;4868959;29;20125;-89
2021/01/08 07:50:15;;;;;;;;;;;4.60;83.60;;;;;;4898536;29;20077;-89
2021/01/08 07:52:45;;;;;;;7.18;4.63;;;4.50;83.50;;;;;;4897242;29;19918;-89
2021/01/08 07:55:30;;;;;;;6.40;4.20;;;4.50;83.50;;;;;;4899313;29;20029;-89
2021/01/08 07:58:03;;;;;;;7.20;4.65;;;4.50;83.60;;;;;;4900739;29;20115;-88
2021/01/08 08:00:31;;;;;;;5.93;4.05;;;4.50;83.60;;;;;;4839714;29;20075;-88
2021/01/08 08:02:58;;;;;;;6.88;4.55;;;4.50;83.60;;;;;;4853658;29;20029;-89
2021/01/08 08:05:28;;;;;;;6.80;4.38;;;4.50;83.70;;;;;;4877562;29;20029;-88
2021/01/08 08:08:01;;;;;;;7.50;4.80;;;4.50;83.70;;;;;;4886368;29;20650;-88
2021/01/08 08:10:29;;;;;;;6.47;4.35;;;4.50;83.70;;;;;;4865441;29;20117;-88
2021/01/08 08:12:55;;;;;;;7.93;4.72;;;4.50;83.70;;;;;;4865241;29;20059;-88
2021/01/08 08:15:27;;;;;;;7.80;4.93;;;4.50;83.70;;;;;;4871216;29;20029;-86
2021/01/08 08:17:53;;;;;;;7.88;5.25;;;4.50;83.70;;;;;;4871560;29;20029;-88
2021/01/08 08:20:25;;;;;;;6.95;4.47;;;4.50;83.70;;;;;;4884068;29;20434;-89
2021/01/08 08:22:58;;;;;;;7.38;4.70;;;4.60;83.90;;;;;;4882935;29;20045;-89
2021/01/08 08:25:32;;;;;;;6.90;4.95;;;4.50;83.80;;;;;;4876602;29;20377;-89
2021/01/08 08:27:59;;;;;;;7.22;4.55;;;4.60;83.80;;;;;;4883115;29;20069;-89
2021/01/08 08:30:27;;;;;;;8.15;4.80;;;4.60;83.80;;;;;;4869823;29;20430;-85
2021/01/08 08:32:54;;;;;;;6.30;4.75;;;4.60;83.80;;;;;;4885414;29;20055;-86
2021/01/08 08:35:21;;;;;;;7.45;5.07;;;4.60;83.80;;;;;;4890703;29;20033;-86
2021/01/08 08:37:54;;;;;;;7.50;5.38;;;4.60;83.80;;;;;;4878675;29;20398;-88
2021/01/08 08:40:30;;;;;;;7.75;5.40;;;4.60;83.90;;;;;;4858777;29;20035;-86
2021/01/08 08:43:08;;;;;;;8.07;5.88;;;4.60;83.90;;;;;;4898994;29;20035;-86
2021/01/08 08:45:35;;;;;;;10.43;7.57;;;4.60;84.10;;;;;;4867800;29;20367;-86
2021/01/08 08:48:05;;;;;;;9.35;6.63;;;4.60;84.10;;;;;;4872216;29;20033;-84
2021/01/08 08:50:33;;;;;;;8.80;6.60;;;4.60;84.30;;;;;;4891488;29;20028;-85
2021/01/08 08:53:13;;;;;;;9.35;6.57;;;4.60;84.30;;;;;;4835493;29;20029;-85
2021/01/08 08:55:42;;;;;;;8.13;6.25;;;4.60;84.30;;;;;;4851799;29;20069;-90
2021/01/08 08:58:26;;;;;;;9.20;6.45;;;4.60;84.40;;;;;;4851033;29;20029;-85
2021/01/08 09:00:52;;;;;;;9.20;5.95;;;4.60;84.40;;;;;;4873344;29;20047;-85
2021/01/08 09:03:19;;;;;;;7.57;5.53;;;4.60;84.30;;;;;;4873854;29;20479;-89
2021/01/08 09:05:45;;;;;;;9.40;6.38;;;4.70;84.40;;;;;;4876397;29;20035;-89
2021/01/08 09:08:18;;;;;;;8.40;5.80;;;4.70;84.40;;;;;;4894648;29;20107;-89
2021/01/08 09:10:54;;;;;;;9.50;6.40;;;4.70;84.40;;;;;;4880773;29;20396;-89
2021/01/08 09:13:50;;;;;;;9.57;6.90;;;4.70;84.30;;;;;;4871644;29;20045;-89
2021/01/08 09:16:36;;;;;;;9.68;6.50;;;4.70;84.40;;;;;;4873446;29;20049;-89
2021/01/08 09:19:16;;;;;;;7.53;5.60;;;4.70;84.40;;;;;;4880526;29;20037;-89
2021/01/08 09:21:50;;;;;;;8.52;5.93;;;4.70;84.60;;;;;;4882268;29;20037;-88
2021/01/08 09:24:21;;;;;;;8.82;6.00;;;4.70;84.40;;;;;;4874964;29;20399;-88
2021/01/08 09:26:48;;;;;;;8.05;6.00;;;4.70;84.50;;;;;;4880756;29;20018;-86
2021/01/08 09:29:28;;;;;;;8.50;6.22;;;4.70;84.40;;;;;;4851218;29;20041;-86
2021/01/08 09:31:55;;;;;;;9.15;6.90;;;4.70;84.60;;;;;;4876260;29;20028;-86
2021/01/08 09:34:23;;;;;;;8.23;5.95;;;4.70;84.60;;;;;;4857378;29;20053;-87
2021/01/08 09:36:49;;;;;;;8.40;5.95;;;4.70;84.60;;;;;;4876572;29;20454;-87
2021/01/08 09:39:15;;;;;;;7.78;5.32;;;4.70;84.70;;;;;;4863315;29;20040;-86
2021/01/08 09:41:43;;;;;;;8.98;5.60;;;4.80;84.80;;;;;;4851255;29;20037;-87
2021/01/08 09:44:11;;;;;;;7.43;5.20;;;4.80;84.80;;;;;;4850373;29;20040;-87
2021/01/08 09:46:57;;;;;;;8.50;4.93;;;4.80;84.80;;;;;;4863618;29;20419;-86
2021/01/08 09:49:23;;;;;;;6.90;4.70;;;4.80;84.80;;;;;;4863544;29;20277;-86
2021/01/08 09:52:00;;;;;;;5.75;4.32;;;4.90;84.80;;;;;;4879912;29;20070;-86
2021/01/08 09:55:04;;;;;;;6.78;4.20;;;4.90;85.20;;;;;;4865591;29;20033;-86
2021/01/08 09:57:37;;;;;;;5.05;3.70;;;4.90;84.60;;;;;;4895784;29;20123;-85
2021/01/08 10:00:11;;;;;;;5.03;3.80;;;4.90;84.50;;;;;;4881634;29;20391;-85
2021/01/08 10:02:41;;;;;;;5.60;3.95;;;4.90;84.50;;;;;;4863347;29;20033;-86
2021/01/08 10:05:23;;;;;;;5.30;3.60;;;4.90;84.50;;;;;;4863314;29;20029;-87
2021/01/08 10:07:50;;;;;;;5.20;3.90;;;4.90;84.50;;;;;;4892940;29;20021;-87
2021/01/08 10:10:25;;;;;;;5.55;3.60;;;5.00;84.50;;;;;;4896852;29;20145;-87
2021/01/08 10:12:52;;;;;;;6.68;4.15;;;5.00;84.50;;;;;;4890123;29;20036;-86
2021/01/08 10:15:19;;;;;;;5.15;3.67;;;5.00;84.40;;;;;;4879045;29;20077;-87
2021/01/08 10:17:49;;;;;;;5.70;4.00;;;5.00;84.50;;;;;;4860396;29;20060;-86
2021/01/08 10:20:20;;;;;;;5.15;3.30;;;5.00;84.50;;;;;;4871615;29;20120;-87
2021/01/08 10:22:51;;;;;;;5.18;3.40;;;5.00;84.50;;;;;;4847979;29;20033;-88
2021/01/08 10:25:35;;;;;;;4.72;3.40;;;5.00;84.50;;;;;;4862173;29;20475;-88
2021/01/08 10:28:21;;;;;;;4.10;3.10;;;5.00;84.50;;;;;;4866071;29;20809;-87
2021/01/08 10:30:49;;;;;;;4.80;3.10;;;5.00;84.40;;;;;;4888557;29;20040;-88
2021/01/08 10:33:16;;;;;;;4.32;3.10;;;5.10;84.30;;;;;;4878437;29;20381;-88
2021/01/08 10:35:46;;;;;;;5.18;3.38;;;5.10;84.30;;;;;;4863495;29;20037;-88
2021/01/08 10:38:12;;;;;;;3.80;2.70;;;5.10;84.20;;;;;;4848101;29;20037;-88
2021/01/08 10:40:38;;;;;;;5.32;3.72;;;5.10;84.20;;;;;;4848387;29;20055;-87
2021/01/08 10:43:03;;;;;;;4.80;3.20;;;5.20;84.30;;;;;;4877942;29;20081;-89
2021/01/08 10:45:29;;;;;;;5.40;3.60;;;5.20;84.40;;;;;;4863038;29;20037;-88
2021/01/08 10:47:54;;;;;;;5.60;3.88;;;5.20;84.50;;;;;;4847487;29;20033;-87
2021/01/08 10:50:20;;;;;;;5.32;3.25;;;5.20;84.50;;;;;;4847214;29;20030;-87
2021/01/08 10:52:46;;;;;;;5.63;3.72;;;5.20;84.50;;;;;;4847537;29;20028;-87
2021/01/08 10:55:12;;;;;;;4.80;3.38;;;5.30;84.50;;;;;;4854549;29;20029;-87
2021/01/08 10:57:38;;;;;;;4.35;3.10;;;5.30;84.40;;;;;;4898405;29;20033;-89
2021/01/08 11:00:07;;;;;;;4.90;3.20;;;5.30;84.20;;;;;;4881431;29;20040;-87
2021/01/08 11:02:34;;;;;;;4.28;2.85;;;5.30;84.20;;;;;;4881671;29;20035;-87
2021/01/08 11:05:00;;;;;;;6.53;4.45;;;5.40;84.20;;;;;;4867117;29;20386;-89
2021/01/08 11:07:26;;;;;;;6.90;4.78;;;5.40;84.10;;;;;;4872891;29;20116;-89
2021/01/08 11:09:51;;;;;;;7.85;4.57;;;5.40;84.00;;;;;;4865271;29;20123;-88
2021/01/08 11:12:17;;;;;;;6.60;4.40;;;5.40;84.00;;;;;;4866857;29;20041;-87
2021/01/08 11:14:43;;;;;;;6.28;3.97;;;5.40;83.90;;;;;;4866662;29;20061;-87
2021/01/08 11:17:08;;;;;;;5.55;3.78;;;5.40;83.90;;;;;;4866572;29;20090;-88
2021/01/08 11:19:34;;;;;;;6.45;3.58;;;5.50;83.90;;;;;;4854727;29;20056;-88
2021/01/08 11:21:59;;;;;;;6.18;3.97;;;5.50;83.80;;;;;;4884615;29;20032;-86
2021/01/08 11:24:25;;;;;;;5.47;3.40;;;5.60;83.80;;;;;;4894103;29;20104;-87
2021/01/08 11:26:51;;;;;;;4.95;3.15;;;5.60;83.70;;;;;;4863047;29;20120;-86
2021/01/08 11:29:16;;;;;;;4.78;3.30;;;5.60;83.60;;;;;;4884928;29;20732;-87
2021/01/08 11:31:42;;;;;;;4.88;2.95;;;5.60;83.50;;;;;;4884530;29;20048;-87
2021/01/08 11:34:09;;;;;;;5.90;3.97;;;5.60;84.10;;;;;;4869389;29;20052;-86
2021/01/08 11:36:36;;;;;;;5.70;3.90;;;5.60;83.40;;;;;;4871799;29;20032;-86
2021/01/08 11:39:03;;;;;;;6.25;3.03;;;5.60;83.40;;;;;;4882818;29;20037;-86
2021/01/08 11:41:29;;;;;;;4.70;3.30;;;5.60;83.40;;;;;;4868053;29;20036;-86
2021/01/08 11:43:54;;;;;;;4.50;2.97;;;5.60;84.00;;;;;;4869003;29;20040;-87
2021/01/08 11:46:21;;;;;;;4.55;3.17;;;5.60;84.00;;;;;;4885064;29;20475;-86
2021/01/08 11:48:50;;;;;;;4.35;3.13;;;5.70;83.50;;;;;;4884543;29;20081;-87
2021/01/08 11:51:16;;;;;;;4.82;3.30;;;5.70;83.50;;;;;;4891849;29;20025;-87
2021/01/08 11:53:44;;;;;;;4.50;2.85;;;5.70;83.50;;;;;;4865586;29;20037;-87
2021/01/08 11:56:10;;;;;;;4.30;2.80;;;5.70;83.40;;;;;;4867198;29;20036;-87
2021/01/08 11:58:44;;;;;;;4.50;2.80;;;5.70;83.30;;;;;;4868361;29;20563;-86
2021/01/08 12:01:10;;;;;;;4.18;2.50;;;5.70;83.20;;;;;;4882842;29;20040;-86
2021/01/08 12:03:37;;;;;;;3.70;2.55;;;5.70;83.10;;;;;;4896987;29;20029;-86
2021/01/08 12:06:04;;;;;;;4.00;2.40;;;5.70;83.10;;;;;;4880360;29;20425;-86
2021/01/08 12:08:31;;;;;;;3.78;2.50;;;5.70;83.00;;;;;;4865239;29;20044;-86
2021/01/08 12:10:57;;;;;;;5.22;2.30;;;5.80;83.60;;;;;;4865180;29;20056;-86
2021/01/08 12:13:23;;;;;;;3.40;2.20;;;5.70;82.90;;;;;;4865018;29;20040;-85
2021/01/08 12:15:49;;;;;;;2.97;2.05;;;5.80;82.90;;;;;;4849818;29;20029;-85
2021/01/08 12:18:15;;;;;;;3.40;2.10;;;5.80;82.90;;;;;;4852006;29;20036;-86
2021/01/08 12:20:41;;;;;;;3.15;1.85;;;5.80;82.80;;;;;;4900052;29;20080;-86
2021/01/08 12:23:07;;;;;;;3.97;2.20;;;5.80;83.30;;;;;;4899784;29;20124;-85
2021/01/08 12:25:37;;;;;;;3.83;2.20;;;5.90;82.70;;;;;;4883661;29;20021;-85
2021/01/08 12:28:07;;;;;;;3.63;2.10;;;5.90;82.70;;;;;;4882552;29;20094;-85
2021/01/08 12:30:33;;;;;;;3.60;2.13;;;5.90;82.50;;;;;;4900038;29;20081;-86
2021/01/08 12:33:00;;;;;;;3.83;2.40;;;5.90;82.50;;;;;;4900194;29;20033;-86
2021/01/08 12:35:26;;;;;;;3.55;2.13;;;5.80;82.40;;;;;;4899919;29;20059;-86
2021/01/08 12:37:52;;;;;;;3.83;2.10;;;5.80;83.10;;;;;;4867809;29;20456;-86
2021/01/08 12:40:19;;;;;;;3.72;2.55;;;5.80;82.40;;;;;;4900062;29;20064;-86
2021/01/08 12:42:49;;;;;;;4.57;3.05;;;5.80;82.40;;;;;;4867644;29;20037;-86
2021/01/08 12:45:15;;;;;;;4.30;2.72;;;5.80;82.40;;;;;;4852245;29;20036;-86
2021/01/08 12:47:41;;;;;;;3.70;2.45;;;5.80;82.40;;;;;;4898667;29;20073;-86
2021/01/08 12:50:08;;;;;;;4.32;2.83;;;5.80;82.40;;;;;;4867531;29;20029;-85
2021/01/08 12:52:34;;;;;;;4.97;2.88;;;5.90;82.40;;;;;;4867638;29;20033;-85
2021/01/08 12:55:00;;;;;;;3.65;2.50;;;5.80;82.30;;;;;;4883103;29;20058;-85
2021/01/08 12:57:26;;;;;;;4.35;2.40;;;5.90;82.30;;;;;;4883094;29;20047;-86
2021/01/08 12:59:52;;;;;;;4.18;2.47;;;5.80;82.30;;;;;;4899579;29;20024;-85
2021/01/08 13:02:17;;;;;;;3.72;2.40;;;5.80;82.20;;;;;;4867405;29;20029;-86
2021/01/08 13:04:43;;;;;;;4.20;2.58;;;5.80;82.30;;;;;;4867461;29;20044;-86